Date,TemperatureHighF,TemperatureAvgF,TemperatureLowF,DewpointHighF,DewpointAvgF,DewpointLowF,HumidityHigh,HumidityAvg,HumidityLow,PressureMaxIn,PressureMinIn,WindSpeedMaxMPH,WindSpeedAvgMPH,GustSpeedMaxMPH,PrecipitationSumIn
2013-5-1,66,29,44,53,-24,-100,88,36,58,30.31,29.82,17,-473,0,0.00
2013-5-2,47,16,35,40,-49,-100,94,31,74,30.34,30.24,20,-618,0,0.11
2013-5-3,48,17,40,42,-45,-100,91,34,81,30.27,30.11,16,-598,0,0.00
2013-5-4,66,25,54,50,-40,-100,71,25,53,30.12,30.04,10,-590,0,0.00
2013-5-5,66,24,52,46,-43,-100,74,21,45,30.13,30.03,4,-603,0,0.00
2013-5-6,67,29,47,47,-32,-100,84,27,37,30.13,29.98,7,-519,0,0.00
2013-5-7,72,31,52,48,-31,-100,72,23,32,30.08,29.99,4,-520,0,0.00
2013-5-8,72,33,58,44,-32,-100,46,18,29,30.03,29.94,4,-519,0,0.00
2013-5-9,58,18,40,48,-46,-100,89,30,66,30.09,29.93,18,-619,0,0.00
2013-5-10,46,12,39,40,-62,-100,85,22,75,30.07,29.93,11,-728,0,0.00
2013-5-11,46,13,41,40,-61,-100,89,20,60,29.93,29.73,13,-704,0,0.00
2013-5-12,41,12,37,30,-63,-100,69,18,58,30.10,29.85,13,-705,0,0.00
2013-5-13,47,13,40,32,-61,-100,68,18,54,30.16,29.97,7,-700,0,0.00
2013-5-14,55,16,46,44,-56,-100,82,23,62,29.95,29.50,5,-686,0,0.00
2013-5-15,71,20,63,50,-57,-100,61,14,40,29.71,29.44,6,-706,0,0.00
2013-5-16,55,21,51,41,-44,-100,67,25,59,30.08,30.00,2,-599,0,0.00
2013-5-17,59,19,48,46,-49,-100,84,25,60,30.18,30.08,6,-644,0,0.00
2013-5-18,59,13,53,49,-66,-100,77,16,67,30.16,29.96,7,-769,0,0.00
2013-5-19,71,25,55,63,-38,-100,89,31,72,29.97,29.80,6,-602,0,0.00
2013-5-20,68,26,55,63,-32,-100,99,39,80,29.80,29.66,8,-560,0,0.28
2013-5-21,60,21,50,58,-41,-100,99,37,91,29.70,29.62,5,-616,0,0.08
2013-5-22,-200,0,200,-100,-100,-100,0,0,100,29.81,29.67,0,-999,0,0.00
2013-5-23,45,19,43,38,-42,-100,79,32,70,30.33,29.82,20,-567,0,0.00
2013-5-24,54,20,43,43,-45,-100,83,27,56,30.43,30.32,2,-603,0,0.00
2013-5-25,58,23,48,40,-43,-100,66,20,41,30.45,30.32,1,-583,0,0.00
2013-5-26,62,27,48,44,-36,-100,78,24,38,30.37,30.21,3,-540,0,0.00
2013-5-27,63,28,55,46,-34,-100,62,25,50,30.23,29.94,6,-540,0,0.00
2013-5-28,-200,0,200,-100,-100,-100,0,0,100,29.93,29.73,0,-999,0,0.00
2013-5-29,62,30,53,59,-19,-100,100,50,86,29.89,29.75,7,-477,0,0.00
2013-5-30,61,34,54,59,-9,-100,99,54,85,29.87,29.77,8,-413,0,0.00
2013-5-31,58,26,52,56,-28,-100,99,44,91,29.78,29.69,9,-533,0,0.00